sensor_id;sensor_type;location;lat;lon;timestamp;pressure;altitude;pressure_sealevel;temperature;humidity
40245;BME280;25963;42.694;23.600;2023-04-19T00:02:22;94730.75;;;11.84;99.40
40245;BME280;25963;42.694;23.600;2023-04-19T00:04:49;94740.97;;;11.93;99.10
40245;BME280;25963;42.694;23.600;2023-04-19T00:07:15;94767.91;;;12.18;98.65
40245;BME280;25963;42.694;23.600;2023-04-19T00:09:42;94762.50;;;12.13;98.28
40245;BME280;25963;42.694;23.600;2023-04-19T00:12:08;94765.94;;;12.14;99.98
40245;BME280;25963;42.694;23.600;2023-04-19T00:14:34;94756.66;;;12.11;99.69
40245;BME280;25963;42.694;23.600;2023-04-19T00:16:59;94745.66;;;12.02;100.00
40245;BME280;25963;42.694;23.600;2023-04-19T00:19:24;94728.66;;;11.98;98.98
40245;BME280;25963;42.694;23.600;2023-04-19T00:21:50;94730.19;;;11.94;99.58
40245;BME280;25963;42.694;23.600;2023-04-19T00:24:16;94753.03;;;12.00;99.83
40245;BME280;25963;42.694;23.600;2023-04-19T00:26:42;94747.41;;;11.97;100.00
40245;BME280;25963;42.694;23.600;2023-04-19T00:29:08;94738.47;;;11.86;100.00
40245;BME280;25963;42.694;23.600;2023-04-19T00:31:34;94736.88;;;11.85;100.00
40245;BME280;25963;42.694;23.600;2023-04-19T00:33:59;94750.41;;;11.88;100.00
40245;BME280;25963;42.694;23.600;2023-04-19T00:36:25;94711.03;;;11.63;100.00
40245;BME280;25963;42.694;23.600;2023-04-19T00:38:51;94741.13;;;11.86;100.00
40245;BME280;25963;42.694;23.600;2023-04-19T00:41:16;94725.41;;;11.68;100.00
40245;BME280;25963;42.694;23.600;2023-04-19T00:43:42;94718.84;;;11.70;100.00
40245;BME280;25963;42.694;23.600;2023-04-19T00:46:07;94729.19;;;11.72;100.00
40245;BME280;25963;42.694;23.600;2023-04-19T00:48:33;94748.44;;;11.84;100.00
40245;BME280;25963;42.694;23.600;2023-04-19T00:51:01;94716.53;;;11.74;100.00
40245;BME280;25963;42.694;23.600;2023-04-19T00:53:26;94725.44;;;11.84;100.00
40245;BME280;25963;42.694;23.600;2023-04-19T00:55:53;94746.69;;;12.01;100.00
40245;BME280;25963;42.694;23.600;2023-04-19T00:58:21;94734.31;;;11.90;100.00
40245;BME280;25963;42.694;23.600;2023-04-19T01:00:47;94742.78;;;12.04;100.00
40245;BME280;25963;42.694;23.600;2023-04-19T01:03:13;94746.13;;;11.99;100.00
40245;BME280;25963;42.694;23.600;2023-04-19T01:05:38;94741.44;;;11.90;100.00
40245;BME280;25963;42.694;23.600;2023-04-19T01:08:04;94742.50;;;11.88;100.00
40245;BME280;25963;42.694;23.600;2023-04-19T01:10:30;94737.06;;;11.83;100.00
40245;BME280;25963;42.694;23.600;2023-04-19T01:12:55;94729.75;;;11.85;100.00
40245;BME280;25963;42.694;23.600;2023-04-19T01:15:21;94736.16;;;11.90;100.00
40245;BME280;25963;42.694;23.600;2023-04-19T01:17:46;94729.63;;;11.80;100.00
40245;BME280;25963;42.694;23.600;2023-04-19T01:20:12;94738.47;;;11.74;100.00
40245;BME280;25963;42.694;23.600;2023-04-19T01:22:37;94729.75;;;11.85;100.00
40245;BME280;25963;42.694;23.600;2023-04-19T01:25:04;94718.13;;;11.75;100.00
40245;BME280;25963;42.694;23.600;2023-04-19T01:27:31;94711.75;;;11.59;100.00
40245;BME280;25963;42.694;23.600;2023-04-19T01:29:57;94726.56;;;11.60;100.00
40245;BME280;25963;42.694;23.600;2023-04-19T01:32:22;94725.56;;;11.61;100.00
40245;BME280;25963;42.694;23.600;2023-04-19T01:34:49;94736.09;;;11.73;100.00
40245;BME280;25963;42.694;23.600;2023-04-19T01:37:14;94724.69;;;11.72;100.00
40245;BME280;25963;42.694;23.600;2023-04-19T01:39:40;94718.91;;;11.58;100.00
40245;BME280;25963;42.694;23.600;2023-04-19T01:42:05;94717.00;;;11.18;100.00
40245;BME280;25963;42.694;23.600;2023-04-19T01:44:31;94731.25;;;11.06;100.00
40245;BME280;25963;42.694;23.600;2023-04-19T01:46:57;94722.75;;;11.04;100.00
40245;BME280;25963;42.694;23.600;2023-04-19T01:49:22;94729.53;;;11.00;100.00
40245;BME280;25963;42.694;23.600;2023-04-19T01:51:47;94717.94;;;11.01;100.00
40245;BME280;25963;42.694;23.600;2023-04-19T01:54:13;94725.28;;;11.22;100.00
40245;BME280;25963;42.694;23.600;2023-04-19T01:56:38;94719.06;;;11.40;100.00
40245;BME280;25963;42.694;23.600;2023-04-19T01:59:04;94710.41;;;11.45;100.00
40245;BME280;25963;42.694;23.600;2023-04-19T02:01:29;94713.31;;;11.43;100.00
40245;BME280;25963;42.694;23.600;2023-04-19T02:03:55;94708.66;;;11.62;100.00
40245;BME280;25963;42.694;23.600;2023-04-19T02:06:20;94694.88;;;11.60;100.00
40245;BME280;25963;42.694;23.600;2023-04-19T02:08:46;94717.00;;;11.71;100.00
40245;BME280;25963;42.694;23.600;2023-04-19T02:11:12;94720.63;;;11.81;100.00
40245;BME280;25963;42.694;23.600;2023-04-19T02:13:41;94717.34;;;11.74;100.00
40245;BME280;25963;42.694;23.600;2023-04-19T02:16:06;94725.00;;;11.87;100.00
40245;BME280;25963;42.694;23.600;2023-04-19T02:18:32;94715.13;;;11.83;100.00
40245;BME280;25963;42.694;23.600;2023-04-19T02:21:00;94702.53;;;11.73;100.00
40245;BME280;25963;42.694;23.600;2023-04-19T02:23:26;94691.66;;;11.70;100.00
40245;BME280;25963;42.694;23.600;2023-04-19T02:25:52;94724.31;;;11.92;100.00
40245;BME280;25963;42.694;23.600;2023-04-19T02:28:17;94699.50;;;11.53;100.00
40245;BME280;25963;42.694;23.600;2023-04-19T02:30:43;94726.50;;;11.55;100.00
40245;BME280;25963;42.694;23.600;2023-04-19T02:33:08;94714.16;;;11.60;100.00
40245;BME280;25963;42.694;23.600;2023-04-19T02:35:34;94699.81;;;11.56;100.00
40245;BME280;25963;42.694;23.600;2023-04-19T02:38:03;94723.84;;;11.83;100.00
40245;BME280;25963;42.694;23.600;2023-04-19T02:40:29;94716.16;;;11.94;100.00
40245;BME280;25963;42.694;23.600;2023-04-19T02:42:55;94710.31;;;11.80;100.00
40245;BME280;25963;42.694;23.600;2023-04-19T02:45:21;94705.19;;;11.73;100.00
40245;BME280;25963;42.694;23.600;2023-04-19T02:47:46;94695.19;;;11.63;100.00
40245;BME280;25963;42.694;23.600;2023-04-19T02:50:13;94721.41;;;11.65;100.00
40245;BME280;25963;42.694;23.600;2023-04-19T02:52:39;94717.59;;;11.73;100.00
40245;BME280;25963;42.694;23.600;2023-04-19T02:55:05;94713.28;;;11.55;100.00
40245;BME280;25963;42.694;23.600;2023-04-19T02:57:31;94717.47;;;11.68;100.00
40245;BME280;25963;42.694;23.600;2023-04-19T02:59:57;94675.72;;;11.53;100.00
40245;BME280;25963;42.694;23.600;2023-04-19T03:02:23;94714.81;;;11.79;100.00
40245;BME280;25963;42.694;23.600;2023-04-19T03:04:49;94711.25;;;11.74;100.00
40245;BME280;25963;42.694;23.600;2023-04-19T03:07:14;94708.50;;;11.69;100.00
40245;BME280;25963;42.694;23.600;2023-04-19T03:09:40;94709.66;;;11.73;100.00
40245;BME280;25963;42.694;23.600;2023-04-19T03:12:06;94694.72;;;11.66;100.00
40245;BME280;25963;42.694;23.600;2023-04-19T03:14:32;94714.94;;;11.73;100.00
40245;BME280;25963;42.694;23.600;2023-04-19T03:17:02;94717.88;;;11.48;100.00
40245;BME280;25963;42.694;23.600;2023-04-19T03:19:27;94699.63;;;11.46;100.00
40245;BME280;25963;42.694;23.600;2023-04-19T03:21:53;94716.38;;;11.52;100.00
40245;BME280;25963;42.694;23.600;2023-04-19T03:24:18;94719.09;;;11.57;100.00
40245;BME280;25963;42.694;23.600;2023-04-19T03:26:44;94706.13;;;11.67;100.00
40245;BME280;25963;42.694;23.600;2023-04-19T03:29:10;94706.28;;;11.49;100.00
40245;BME280;25963;42.694;23.600;2023-04-19T03:31:37;94719.66;;;11.71;100.00
40245;BME280;25963;42.694;23.600;2023-04-19T03:34:02;94723.28;;;11.81;100.00
40245;BME280;25963;42.694;23.600;2023-04-19T03:36:28;94724.16;;;11.70;100.00
40245;BME280;25963;42.694;23.600;2023-04-19T03:38:53;94725.94;;;11.81;100.00
40245;BME280;25963;42.694;23.600;2023-04-19T03:41:21;94722.00;;;11.84;100.00
40245;BME280;25963;42.694;23.600;2023-04-19T03:43:47;94699.91;;;11.73;100.00
40245;BME280;25963;42.694;23.600;2023-04-19T03:46:13;94698.94;;;11.79;100.00
40245;BME280;25963;42.694;23.600;2023-04-19T03:48:38;94694.28;;;11.98;100.00
40245;BME280;25963;42.694;23.600;2023-04-19T03:51:03;94712.09;;;12.03;100.00
40245;BME280;25963;42.694;23.600;2023-04-19T03:53:29;94694.78;;;11.83;100.00
40245;BME280;25963;42.694;23.600;2023-04-19T03:55:54;94703.50;;;11.84;100.00
40245;BME280;25963;42.694;23.600;2023-04-19T03:58:21;94713.81;;;11.57;100.00
40245;BME280;25963;42.694;23.600;2023-04-19T04:00:46;94692.03;;;11.50;100.00
40245;BME280;25963;42.694;23.600;2023-04-19T04:03:12;94710.16;;;11.58;100.00
40245;BME280;25963;42.694;23.600;2023-04-19T04:05:37;94691.03;;;11.27;100.00
40245;BME280;25963;42.694;23.600;2023-04-19T04:08:03;94693.81;;;11.32;100.00
40245;BME280;25963;42.694;23.600;2023-04-19T04:10:28;94717.06;;;11.47;100.00
40245;BME280;25963;42.694;23.600;2023-04-19T04:12:54;94709.38;;;11.46;100.00
40245;BME280;25963;42.694;23.600;2023-04-19T04:15:19;94722.69;;;11.51;100.00
40245;BME280;25963;42.694;23.600;2023-04-19T04:17:45;94716.59;;;11.50;100.00
40245;BME280;25963;42.694;23.600;2023-04-19T04:20:10;94706.22;;;11.60;100.00
40245;BME280;25963;42.694;23.600;2023-04-19T04:22:41;94707.56;;;11.46;100.00
40245;BME280;25963;42.694;23.600;2023-04-19T04:25:07;94714.91;;;11.32;100.00
40245;BME280;25963;42.694;23.600;2023-04-19T04:27:33;94722.81;;;11.56;100.00
40245;BME280;25963;42.694;23.600;2023-04-19T04:29:59;94698.88;;;11.34;100.00
40245;BME280;25963;42.694;23.600;2023-04-19T04:32:26;94712.69;;;11.53;100.00
40245;BME280;25963;42.694;23.600;2023-04-19T04:34:51;94728.63;;;11.70;100.00
40245;BME280;25963;42.694;23.600;2023-04-19T04:37:17;94724.97;;;11.59;100.00
40245;BME280;25963;42.694;23.600;2023-04-19T04:39:42;94719.84;;;11.81;100.00
40245;BME280;25963;42.694;23.600;2023-04-19T04:42:08;94728.13;;;10.62;100.00
40245;BME280;25963;42.694;23.600;2023-04-19T04:44:34;94722.13;;;10.31;100.00
40245;BME280;25963;42.694;23.600;2023-04-19T04:47:00;94719.66;;;10.18;100.00
40245;BME280;25963;42.694;23.600;2023-04-19T04:49:26;94711.16;;;10.16;100.00
40245;BME280;25963;42.694;23.600;2023-04-19T04:51:51;94716.44;;;10.69;100.00
40245;BME280;25963;42.694;23.600;2023-04-19T04:54:17;94724.59;;;10.91;100.00
40245;BME280;25963;42.694;23.600;2023-04-19T04:56:42;94711.97;;;10.82;100.00
40245;BME280;25963;42.694;23.600;2023-04-19T04:59:08;94716.78;;;10.73;100.00
40245;BME280;25963;42.694;23.600;2023-04-19T05:01:33;94722.66;;;10.99;100.00
40245;BME280;25963;42.694;23.600;2023-04-19T05:03:59;94728.03;;;11.04;100.00
40245;BME280;25963;42.694;23.600;2023-04-19T05:06:24;94733.31;;;11.04;100.00
40245;BME280;25963;42.694;23.600;2023-04-19T05:08:50;94706.91;;;11.04;100.00
40245;BME280;25963;42.694;23.600;2023-04-19T05:11:16;94705.31;;;11.03;100.00
40245;BME280;25963;42.694;23.600;2023-04-19T05:13:41;94728.13;;;11.20;100.00
40245;BME280;25963;42.694;23.600;2023-04-19T05:16:07;94737.75;;;11.38;100.00
40245;BME280;25963;42.694;23.600;2023-04-19T05:18:33;94733.53;;;11.37;100.00
40245;BME280;25963;42.694;23.600;2023-04-19T05:20:58;94747.66;;;11.19;100.00
40245;BME280;25963;42.694;23.600;2023-04-19T05:23:24;94743.06;;;11.27;100.00
40245;BME280;25963;42.694;23.600;2023-04-19T05:25:49;94736.03;;;11.32;100.00
40245;BME280;25963;42.694;23.600;2023-04-19T05:28:15;94736.47;;;11.53;100.00
40245;BME280;25963;42.694;23.600;2023-04-19T05:30:40;94731.22;;;11.29;100.00
40245;BME280;25963;42.694;23.600;2023-04-19T05:33:06;94731.91;;;11.36;100.00
40245;BME280;25963;42.694;23.600;2023-04-19T05:35:31;94724.69;;;11.20;100.00
40245;BME280;25963;42.694;23.600;2023-04-19T05:37:57;94728.94;;;11.33;100.00
40245;BME280;25963;42.694;23.600;2023-04-19T05:40:22;94740.72;;;11.54;100.00
40245;BME280;25963;42.694;23.600;2023-04-19T05:42:48;94747.97;;;11.47;100.00
40245;BME280;25963;42.694;23.600;2023-04-19T05:45:15;94732.38;;;11.33;100.00
40245;BME280;25963;42.694;23.600;2023-04-19T05:47:40;94709.25;;;11.52;100.00
40245;BME280;25963;42.694;23.600;2023-04-19T05:50:06;94708.94;;;11.49;100.00
40245;BME280;25963;42.694;23.600;2023-04-19T05:52:32;94727.81;;;11.69;100.00
40245;BME280;25963;42.694;23.600;2023-04-19T05:54:58;94748.22;;;11.97;100.00
40245;BME280;25963;42.694;23.600;2023-04-19T05:57:23;94744.38;;;12.05;100.00
40245;BME280;25963;42.694;23.600;2023-04-19T05:59:50;94747.50;;;12.30;100.00
40245;BME280;25963;42.694;23.600;2023-04-19T06:02:15;94729.34;;;12.22;100.00
40245;BME280;25963;42.694;23.600;2023-04-19T06:04:41;94745.00;;;12.24;100.00
40245;BME280;25963;42.694;23.600;2023-04-19T06:07:06;94734.38;;;12.07;100.00
40245;BME280;25963;42.694;23.600;2023-04-19T06:09:32;94748.13;;;12.38;100.00
40245;BME280;25963;42.694;23.600;2023-04-19T06:11:57;94745.38;;;12.16;100.00
40245;BME280;25963;42.694;23.600;2023-04-19T06:14:24;94757.28;;;12.30;100.00
40245;BME280;25963;42.694;23.600;2023-04-19T06:16:50;94753.34;;;12.49;100.00
40245;BME280;25963;42.694;23.600;2023-04-19T06:19:15;94722.41;;;12.50;100.00
40245;BME280;25963;42.694;23.600;2023-04-19T06:21:41;94722.56;;;12.43;100.00
40245;BME280;25963;42.694;23.600;2023-04-19T06:24:06;94720.84;;;12.20;100.00
40245;BME280;25963;42.694;23.600;2023-04-19T06:26:32;94742.72;;;12.61;100.00
40245;BME280;25963;42.694;23.600;2023-04-19T06:28:57;94748.03;;;12.78;100.00
40245;BME280;25963;42.694;23.600;2023-04-19T06:31:23;94753.72;;;12.87;100.00
40245;BME280;25963;42.694;23.600;2023-04-19T06:33:48;94735.66;;;12.84;100.00
40245;BME280;25963;42.694;23.600;2023-04-19T06:36:14;94754.56;;;13.09;100.00
40245;BME280;25963;42.694;23.600;2023-04-19T06:38:39;94734.25;;;13.15;99.11
40245;BME280;25963;42.694;23.600;2023-04-19T06:41:06;94737.16;;;13.13;100.00
40245;BME280;25963;42.694;23.600;2023-04-19T06:43:31;94760.56;;;13.38;96.60
40245;BME280;25963;42.694;23.600;2023-04-19T06:46:01;94745.66;;;13.15;95.82
40245;BME280;25963;42.694;23.600;2023-04-19T06:48:27;94764.69;;;13.29;97.14
40245;BME280;25963;42.694;23.600;2023-04-19T06:50:53;94750.22;;;13.37;96.13
40245;BME280;25963;42.694;23.600;2023-04-19T06:53:19;94760.81;;;13.37;94.23
40245;BME280;25963;42.694;23.600;2023-04-19T06:55:44;94754.09;;;13.12;96.15
40245;BME280;25963;42.694;23.600;2023-04-19T06:58:10;94759.63;;;12.94;96.28
40245;BME280;25963;42.694;23.600;2023-04-19T07:00:36;94765.41;;;12.91;97.05
40245;BME280;25963;42.694;23.600;2023-04-19T07:03:02;94779.22;;;12.93;97.86
40245;BME280;25963;42.694;23.600;2023-04-19T07:05:28;94759.38;;;13.12;96.65
40245;BME280;25963;42.694;23.600;2023-04-19T07:07:54;94763.47;;;13.37;96.34
40245;BME280;25963;42.694;23.600;2023-04-19T07:10:19;94780.66;;;13.73;93.69
40245;BME280;25963;42.694;23.600;2023-04-19T07:12:45;94783.38;;;14.00;95.22
40245;BME280;25963;42.694;23.600;2023-04-19T07:15:10;94781.25;;;14.02;90.94
40245;BME280;25963;42.694;23.600;2023-04-19T07:17:36;94756.28;;;13.98;90.38
40245;BME280;25963;42.694;23.600;2023-04-19T07:20:02;94771.28;;;14.09;88.67
40245;BME280;25963;42.694;23.600;2023-04-19T07:22:29;94775.75;;;14.31;89.56
40245;BME280;25963;42.694;23.600;2023-04-19T07:24:54;94737.31;;;14.11;86.83
40245;BME280;25963;42.694;23.600;2023-04-19T07:27:20;94779.41;;;14.25;86.60
40245;BME280;25963;42.694;23.600;2023-04-19T07:29:45;94753.09;;;13.74;88.14
40245;BME280;25963;42.694;23.600;2023-04-19T07:32:11;94779.09;;;14.21;87.77
40245;BME280;25963;42.694;23.600;2023-04-19T07:34:38;94780.41;;;14.24;87.54
40245;BME280;25963;42.694;23.600;2023-04-19T07:37:05;94772.72;;;14.49;85.59
40245;BME280;25963;42.694;23.600;2023-04-19T07:39:31;94765.91;;;14.31;84.00
40245;BME280;25963;42.694;23.600;2023-04-19T07:41:57;94773.69;;;14.65;84.40
40245;BME280;25963;42.694;23.600;2023-04-19T07:44:22;94775.97;;;14.83;81.46
40245;BME280;25963;42.694;23.600;2023-04-19T07:46:48;94790.19;;;14.99;79.49
40245;BME280;25963;42.694;23.600;2023-04-19T07:49:14;94772.25;;;14.79;81.01
40245;BME280;25963;42.694;23.600;2023-04-19T07:51:40;94775.31;;;14.98;80.58
40245;BME280;25963;42.694;23.600;2023-04-19T07:54:05;94778.13;;;14.87;83.23
40245;BME280;25963;42.694;23.600;2023-04-19T07:56:31;94769.88;;;14.83;81.43
40245;BME280;25963;42.694;23.600;2023-04-19T07:58:59;94781.69;;;14.97;82.18
40245;BME280;25963;42.694;23.600;2023-04-19T08:01:24;94774.00;;;15.38;80.49
40245;BME280;25963;42.694;23.600;2023-04-19T08:03:50;94749.44;;;15.21;79.38
40245;BME280;25963;42.694;23.600;2023-04-19T08:06:15;94758.72;;;15.18;77.76
40245;BME280;25963;42.694;23.600;2023-04-19T08:08:42;94777.78;;;15.47;80.23
40245;BME280;25963;42.694;23.600;2023-04-19T08:11:07;94786.13;;;15.66;77.43
40245;BME280;25963;42.694;23.600;2023-04-19T08:13:33;94785.38;;;15.76;78.31
40245;BME280;25963;42.694;23.600;2023-04-19T08:15:58;94774.50;;;15.78;78.24
40245;BME280;25963;42.694;23.600;2023-04-19T08:18:24;94788.06;;;15.76;76.09
40245;BME280;25963;42.694;23.600;2023-04-19T08:20:50;94778.25;;;15.77;73.76
40245;BME280;25963;42.694;23.600;2023-04-19T08:23:16;94777.94;;;15.68;70.59
40245;BME280;25963;42.694;23.600;2023-04-19T08:25:42;94778.59;;;16.06;73.56
40245;BME280;25963;42.694;23.600;2023-04-19T08:28:07;94757.25;;;15.85;72.54
40245;BME280;25963;42.694;23.600;2023-04-19T08:30:32;94782.22;;;15.74;70.60
40245;BME280;25963;42.694;23.600;2023-04-19T08:32:58;94771.41;;;15.96;75.46
40245;BME280;25963;42.694;23.600;2023-04-19T08:35:23;94763.75;;;16.10;73.91
40245;BME280;25963;42.694;23.600;2023-04-19T08:37:49;94761.59;;;16.12;73.07
40245;BME280;25963;42.694;23.600;2023-04-19T08:40:15;94766.97;;;16.32;72.29
40245;BME280;25963;42.694;23.600;2023-04-19T08:42:42;94760.09;;;16.36;69.55
40245;BME280;25963;42.694;23.600;2023-04-19T08:45:07;94761.91;;;16.26;70.46
40245;BME280;25963;42.694;23.600;2023-04-19T08:47:36;94746.81;;;16.67;69.59
40245;BME280;25963;42.694;23.600;2023-04-19T08:50:06;94751.09;;;17.04;72.99
40245;BME280;25963;42.694;23.600;2023-04-19T08:52:36;94762.03;;;16.82;67.16
40245;BME280;25963;42.694;23.600;2023-04-19T08:55:06;94756.97;;;16.91;70.31
40245;BME280;25963;42.694;23.600;2023-04-19T08:57:33;94760.88;;;16.47;65.59
40245;BME280;25963;42.694;23.600;2023-04-19T08:59:59;94735.75;;;15.97;68.20
40245;BME280;25963;42.694;23.600;2023-04-19T09:02:25;94754.78;;;16.52;67.75
40245;BME280;25963;42.694;23.600;2023-04-19T09:04:51;94747.38;;;16.95;71.53
40245;BME280;25963;42.694;23.600;2023-04-19T09:07:26;94753.50;;;16.90;67.33
40245;BME280;25963;42.694;23.600;2023-04-19T09:10:08;94760.13;;;17.33;65.51
40245;BME280;25963;42.694;23.600;2023-04-19T09:12:35;94745.50;;;17.10;63.20
40245;BME280;25963;42.694;23.600;2023-04-19T09:15:03;94744.47;;;16.96;64.83
40245;BME280;25963;42.694;23.600;2023-04-19T09:17:30;94741.25;;;17.09;67.05
40245;BME280;25963;42.694;23.600;2023-04-19T09:19:56;94744.91;;;16.42;60.51
40245;BME280;25963;42.694;23.600;2023-04-19T09:22:22;94740.91;;;16.29;67.84
40245;BME280;25963;42.694;23.600;2023-04-19T09:24:47;94733.50;;;16.62;68.95
40245;BME280;25963;42.694;23.600;2023-04-19T09:27:34;94740.47;;;16.88;65.53
40245;BME280;25963;42.694;23.600;2023-04-19T09:30:03;94751.59;;;16.50;65.14
40245;BME280;25963;42.694;23.600;2023-04-19T09:32:44;94739.78;;;16.05;64.17
40245;BME280;25963;42.694;23.600;2023-04-19T09:35:10;94722.53;;;16.28;66.09
40245;BME280;25963;42.694;23.600;2023-04-19T09:37:35;94715.84;;;16.20;65.02
40245;BME280;25963;42.694;23.600;2023-04-19T09:40:20;94732.94;;;16.50;64.91
40245;BME280;25963;42.694;23.600;2023-04-19T09:42:46;94735.66;;;16.75;63.60
40245;BME280;25963;42.694;23.600;2023-04-19T09:45:12;94740.44;;;17.14;63.48
40245;BME280;25963;42.694;23.600;2023-04-19T09:47:37;94712.41;;;17.47;65.03
40245;BME280;25963;42.694;23.600;2023-04-19T09:50:12;94720.81;;;17.85;56.70
40245;BME280;25963;42.694;23.600;2023-04-19T09:52:37;94712.81;;;18.40;65.20
40245;BME280;25963;42.694;23.600;2023-04-19T09:55:04;94710.09;;;19.13;64.71
40245;BME280;25963;42.694;23.600;2023-04-19T09:57:31;94705.59;;;19.62;63.79
40245;BME280;25963;42.694;23.600;2023-04-19T09:59:58;94702.28;;;19.94;56.83
40245;BME280;25963;42.694;23.600;2023-04-19T10:02:25;94692.41;;;20.33;53.72
40245;BME280;25963;42.694;23.600;2023-04-19T10:04:51;94699.00;;;20.40;57.94
40245;BME280;25963;42.694;23.600;2023-04-19T10:07:17;94685.19;;;20.52;46.07
40245;BME280;25963;42.694;23.600;2023-04-19T10:09:44;94681.72;;;20.84;52.62
40245;BME280;25963;42.694;23.600;2023-04-19T10:12:12;94661.06;;;20.33;46.77
40245;BME280;25963;42.694;23.600;2023-04-19T10:14:39;94684.59;;;20.74;48.26
40245;BME280;25963;42.694;23.600;2023-04-19T10:17:04;94692.13;;;20.34;49.28
40245;BME280;25963;42.694;23.600;2023-04-19T10:19:34;94677.97;;;20.85;55.28
40245;BME280;25963;42.694;23.600;2023-04-19T10:22:00;94684.84;;;21.38;47.95
40245;BME280;25963;42.694;23.600;2023-04-19T10:24:29;94676.22;;;20.94;47.55
40245;BME280;25963;42.694;23.600;2023-04-19T10:27:15;94693.00;;;20.67;48.26
40245;BME280;25963;42.694;23.600;2023-04-19T10:29:58;94681.19;;;20.49;49.00
40245;BME280;25963;42.694;23.600;2023-04-19T10:32:40;94672.56;;;20.34;46.21
40245;BME280;25963;42.694;23.600;2023-04-19T10:38:12;94683.28;;;19.96;47.65
40245;BME280;25963;42.694;23.600;2023-04-19T10:43:24;94667.44;;;20.37;47.91
40245;BME280;25963;42.694;23.600;2023-04-19T10:45:50;94683.91;;;19.64;49.93
40245;BME280;25963;42.694;23.600;2023-04-19T10:51:19;94682.63;;;16.74;55.01
40245;BME280;25963;42.694;23.600;2023-04-19T10:53:45;94690.34;;;16.70;62.04
40245;BME280;25963;42.694;23.600;2023-04-19T10:56:11;94674.38;;;16.96;56.06
40245;BME280;25963;42.694;23.600;2023-04-19T11:01:34;94677.81;;;17.11;60.46
40245;BME280;25963;42.694;23.600;2023-04-19T11:04:03;94679.69;;;16.65;56.87
40245;BME280;25963;42.694;23.600;2023-04-19T11:06:29;94668.00;;;16.97;62.27
40245;BME280;25963;42.694;23.600;2023-04-19T11:08:56;94681.06;;;16.93;58.40
40245;BME280;25963;42.694;23.600;2023-04-19T11:11:21;94677.44;;;17.49;57.90
40245;BME280;25963;42.694;23.600;2023-04-19T11:13:47;94674.16;;;17.67;57.52
40245;BME280;25963;42.694;23.600;2023-04-19T11:16:13;94672.00;;;18.29;55.37
40245;BME280;25963;42.694;23.600;2023-04-19T11:18:38;94633.53;;;17.96;55.84
40245;BME280;25963;42.694;23.600;2023-04-19T11:21:04;94671.63;;;18.46;52.67
40245;BME280;25963;42.694;23.600;2023-04-19T11:23:30;94652.84;;;18.90;53.42
40245;BME280;25963;42.694;23.600;2023-04-19T11:25:55;94666.47;;;18.94;52.85
40245;BME280;25963;42.694;23.600;2023-04-19T11:28:21;94675.53;;;18.19;51.42
40245;BME280;25963;42.694;23.600;2023-04-19T11:30:47;94682.81;;;17.33;53.68
40245;BME280;25963;42.694;23.600;2023-04-19T11:33:19;94689.84;;;16.94;56.85
40245;BME280;25963;42.694;23.600;2023-04-19T11:35:49;94678.13;;;16.84;58.54
40245;BME280;25963;42.694;23.600;2023-04-19T11:38:15;94682.31;;;16.04;66.94
40245;BME280;25963;42.694;23.600;2023-04-19T11:40:41;94678.34;;;16.27;64.25
40245;BME280;25963;42.694;23.600;2023-04-19T11:43:06;94681.03;;;16.37;63.29
40245;BME280;25963;42.694;23.600;2023-04-19T11:45:34;94685.53;;;16.41;62.45
40245;BME280;25963;42.694;23.600;2023-04-19T11:48:00;94682.38;;;16.39;63.78
40245;BME280;25963;42.694;23.600;2023-04-19T11:52:59;94679.13;;;16.17;65.30
40245;BME280;25963;42.694;23.600;2023-04-19T11:55:24;94674.91;;;16.57;68.65
40245;BME280;25963;42.694;23.600;2023-04-19T11:57:50;94667.47;;;16.33;61.49
40245;BME280;25963;42.694;23.600;2023-04-19T12:00:26;94669.84;;;16.50;63.60
40245;BME280;25963;42.694;23.600;2023-04-19T12:02:52;94682.34;;;16.34;65.82
40245;BME280;25963;42.694;23.600;2023-04-19T12:05:18;94669.84;;;16.50;63.05
40245;BME280;25963;42.694;23.600;2023-04-19T12:08:03;94666.13;;;16.46;62.28
40245;BME280;25963;42.694;23.600;2023-04-19T12:10:30;94664.00;;;16.94;60.62
40245;BME280;25963;42.694;23.600;2023-04-19T12:12:56;94653.09;;;16.85;59.89
40245;BME280;25963;42.694;23.600;2023-04-19T12:15:22;94653.09;;;16.75;56.94
40245;BME280;25963;42.694;23.600;2023-04-19T12:20:35;94644.47;;;17.24;56.47
40245;BME280;25963;42.694;23.600;2023-04-19T12:23:02;94659.88;;;17.48;56.51
40245;BME280;25963;42.694;23.600;2023-04-19T12:25:32;94656.63;;;17.56;58.06
40245;BME280;25963;42.694;23.600;2023-04-19T12:27:58;94624.50;;;17.22;56.16
40245;BME280;25963;42.694;23.600;2023-04-19T12:30:24;94662.63;;;17.12;55.73
40245;BME280;25963;42.694;23.600;2023-04-19T12:32:51;94661.91;;;17.66;61.47
40245;BME280;25963;42.694;23.600;2023-04-19T12:35:20;94654.75;;;17.56;57.42
40245;BME280;25963;42.694;23.600;2023-04-19T12:37:46;94639.75;;;16.96;62.02
40245;BME280;25963;42.694;23.600;2023-04-19T12:40:12;94639.38;;;17.33;60.81
40245;BME280;25963;42.694;23.600;2023-04-19T12:42:37;94660.81;;;17.72;59.10
40245;BME280;25963;42.694;23.600;2023-04-19T12:45:03;94653.34;;;17.74;66.07
40245;BME280;25963;42.694;23.600;2023-04-19T12:47:29;94648.09;;;17.54;67.17
40245;BME280;25963;42.694;23.600;2023-04-19T12:49:54;94641.88;;;17.74;70.19
40245;BME280;25963;42.694;23.600;2023-04-19T12:52:22;94638.63;;;17.92;72.77
40245;BME280;25963;42.694;23.600;2023-04-19T12:54:47;94644.66;;;18.08;70.58
40245;BME280;25963;42.694;23.600;2023-04-19T12:57:12;94636.75;;;17.93;66.16
40245;BME280;25963;42.694;23.600;2023-04-19T12:59:38;94632.38;;;18.07;65.40